Sunday, November 18, 2018, 2:20 PM GMT
Back to Local

CWNE, North Point, Prince Edward Island

Location: , , Canada Lat: 47.083
Local Time: 2:20 PM GMT (14:20 GMT) Lon: -64
Time Zone: GMT Elev: 49 ft

Show me the last for .
Show Coded

Time T Td Feel RH Dir Speed Gust Alt SLP Vis Weather Sky Remarks
2018-11-18 14:00 29 20 13 71 290° 23 29 - 30.22 0 Peak wind: 29 mph (26 kts) from 290° at 00 min
2018-11-18 13:00 29 22 13 76 290° 25 31 - 30.20 0 Peak wind: 37 mph (33 kts) from 300° at 07 min
2018-11-18 12:00 28 19 12 68 300° 29 35 - 30.17 0 Peak wind: 35 mph (31 kts) from 300° at 48 min
2018-11-18 11:00 28 21 12 72 300° 28 33 - 30.13 0 Peak wind: 36 mph (32 kts) from 300° at 15 min
2018-11-18 10:00 29 21 12 73 300° 29 35 - 30.08 0 Peak wind: 37 mph (33 kts) from 290° at 18 min
2018-11-18 09:00 29 21 12 72 290° 30 38 - 30.06 0 Peak wind: 37 mph (33 kts) from 300° at 52 min
2018-11-18 08:00 30 23 15 73 290° 31 - - 30.02 0 Peak wind: 39 mph (34 kts) from 280° at 48 min
2018-11-18 07:00 31 24 16 73 290° 31 - - 30.00 0 Peak wind: 37 mph (33 kts) from 290° at 26 min
2018-11-18 06:00 32 26 16 77 290° 30 36 - 29.98 0 Peak wind: 36 mph (32 kts) from 280° at 34 min
2018-11-18 05:00 33 27 18 78 270° 28 33 - 29.96 0 Peak wind: 34 mph (30 kts) from 270° at 48 min
2018-11-18 04:00 33 27 20 77 260° 26 - - 29.94 0 Peak wind: 31 mph (27 kts) from 260° at 58 min
2018-11-18 03:00 33 26 19 73 270° 24 30 - 29.92 0 Peak wind: 32 mph (28 kts) from 260° at 36 min
2018-11-18 02:00 33 26 19 75 270° 24 30 - 29.92 0 Peak wind: 33 mph (29 kts) from 270° at 02 min
2018-11-18 01:00 31 25 16 77 260° 28 33 - 29.89 0 Peak wind: 33 mph (29 kts) from 260° at 52 min
2018-11-18 00:00 32 25 18 76 270° 24 - - 29.88 0 Peak wind: 33 mph (29 kts) from 270° at 03 min
2018-11-17 23:00 31 26 17 79 270° 28 - - 29.86 0 Peak wind: 33 mph (29 kts) from 270° at 26 min
2018-11-17 22:00 31 26 16 78 270° 26 33 - 29.85 0 Peak wind: 33 mph (29 kts) from 270° at 59 min
2018-11-17 21:00 31 25 18 77 270° 24 - - 29.82 0 Peak wind: 34 mph (30 kts) from 270° at 24 min
2018-11-17 20:00 32 27 18 81 270° 22 29 - 29.79 0 Peak wind: 28 mph (25 kts) from 260° at 59 min
2018-11-17 19:00 33 26 21 76 260° 22 - - 29.77 0 Peak wind: 27 mph (24 kts) from 270° at 02 min
2018-11-17 18:00 31 27 18 83 270° 24 - - 29.76 0 Peak wind: 27 mph (24 kts) from 260° at 49 min
2018-11-17 17:00 31 26 18 83 280° 21 - - 29.73 0 Peak wind: 25 mph (22 kts) from 270° at 49 min
2018-11-17 16:00 31 27 18 85 270° 20 - - 29.73 0 Peak wind: 26 mph (23 kts) from 270° at 42 min
2018-11-17 15:00 33 28 22 80 280° 17 - - 29.72 0 Peak wind: 23 mph (20 kts) from 290° at 23 min

Support USWX by starting your Amazon purchase here.